Time;durP1;ratioP1;P1;durP2;ratioP2;P2;SDS_P1;SDS_P2;PMS_P1;PMS_P2;Temp;Humidity;BMP_temperature;BMP_pressure;BME280_temperature;BME280_humidity;BME280_pressure;Samples;Min_cycle;Max_cycle;Signal;HPM_P1;HPM_P2
2022/04/29 00:00:55;;;;;;;5.10;4.60;;;;;;;12.66;94.11;100542.41;5082153;28;20032;-77
2022/04/29 00:03:22;;;;;;;4.75;4.30;;;;;;;12.62;94.56;100541.78;5084102;28;20035;-77
2022/04/29 00:05:47;;;;;;;5.30;4.13;;;;;;;12.60;94.91;100542.91;5086136;28;20086;-76
2022/04/29 00:08:14;;;;;;;5.53;4.65;;;;;;;12.53;95.28;100555.84;5081094;28;20024;-77
2022/04/29 00:10:41;;;;;;;5.72;4.60;;;;;;;12.48;95.56;100555.41;5084157;28;20028;-77
2022/04/29 00:13:09;;;;;;;6.55;4.47;;;;;;;12.41;96.40;100559.53;5087008;28;20029;-78
2022/04/29 00:15:35;;;;;;;4.60;4.30;;;;;;;12.35;96.78;100552.09;5086232;28;20028;-77
2022/04/29 00:18:00;;;;;;;5.00;4.60;;;;;;;12.31;97.04;100556.00;5086934;28;20112;-77
2022/04/29 00:20:26;;;;;;;5.68;5.07;;;;;;;12.30;97.11;100554.31;5087879;28;20035;-77
2022/04/29 00:22:51;;;;;;;5.68;5.07;;;;;;;12.27;97.22;100558.03;5100282;28;20777;-77
2022/04/29 00:25:16;;;;;;;5.00;4.60;;;;;;;12.19;97.79;100564.97;5087106;28;20482;-76
2022/04/29 00:27:42;;;;;;;5.13;4.72;;;;;;;12.10;98.11;100568.34;5081076;28;20433;-78
2022/04/29 00:30:10;;;;;;;5.35;4.85;;;;;;;12.07;98.67;100565.97;5083786;28;20529;-77
2022/04/29 00:32:38;;;;;;;5.80;4.47;;;;;;;12.05;98.71;100568.75;5065424;28;20058;-76
2022/04/29 00:35:06;;;;;;;5.13;4.72;;;;;;;12.07;99.20;100569.47;5083985;28;20032;-76
2022/04/29 00:37:31;;;;;;;6.03;4.93;;;;;;;12.09;99.29;100569.31;5082237;28;20101;-76
2022/04/29 00:39:57;;;;;;;5.60;5.10;;;;;;;12.09;99.03;100574.59;5080046;28;20041;-76
2022/04/29 00:42:23;;;;;;;5.35;4.93;;;;;;;12.08;99.35;100573.78;5083428;28;20085;-76
2022/04/29 00:44:49;;;;;;;5.57;5.07;;;;;;;12.07;98.65;100577.41;5081801;28;20025;-76
2022/04/29 00:47:18;;;;;;;5.93;5.15;;;;;;;12.06;98.87;100569.59;5077122;28;20050;-76
2022/04/29 00:49:45;;;;;;;5.93;5.32;;;;;;;12.06;99.10;100569.59;5089238;28;20039;-76
2022/04/29 00:52:17;;;;;;;6.38;5.65;;;;;;;12.00;99.19;100570.09;5085860;28;20043;-76
2022/04/29 00:54:45;;;;;;;6.72;5.38;;;;;;;11.87;99.83;100576.41;5085075;28;20042;-77
2022/04/29 00:57:17;;;;;;;6.18;5.63;;;;;;;11.75;100.00;100576.56;5086316;28;20117;-76
2022/04/29 00:59:52;;;;;;;8.15;5.45;;;;;;;11.69;100.00;100571.75;5076754;28;20024;-78
2022/04/29 01:02:19;;;;;;;6.05;5.53;;;;;;;11.69;100.00;100577.88;5072717;28;20519;-78
2022/04/29 01:04:59;;;;;;;6.72;5.50;;;;;;;11.70;100.00;100568.97;5079526;28;20036;-77
2022/04/29 01:07:27;;;;;;;9.55;5.65;;;;;;;11.73;100.00;100563.47;5078802;28;20028;-78
2022/04/29 01:09:53;;;;;;;5.68;5.18;;;;;;;11.74;100.00;100572.22;5079196;28;20035;-78
2022/04/29 01:12:18;;;;;;;5.68;5.00;;;;;;;11.69;100.00;100569.94;5082651;28;20028;-76
2022/04/29 01:14:44;;;;;;;6.10;5.50;;;;;;;11.67;100.00;100568.38;5078583;28;20039;-77
2022/04/29 01:17:10;;;;;;;5.93;5.38;;;;;;;11.68;100.00;100570.91;5080942;28;20352;-76
2022/04/29 01:19:39;;;;;;;5.80;5.30;;;;;;;11.64;100.00;100574.75;5080212;28;20036;-77
2022/04/29 01:22:05;;;;;;;7.53;5.50;;;;;;;11.57;100.00;100578.88;5077224;28;20028;-75
2022/04/29 01:24:30;;;;;;;6.25;5.65;;;;;;;11.49;100.00;100570.69;5079503;28;20059;-77
2022/04/29 01:26:56;;;;;;;7.63;5.78;;;;;;;11.41;100.00;100574.00;5080897;28;20107;-76
2022/04/29 01:29:23;;;;;;;6.25;5.65;;;;;;;11.36;100.00;100581.44;5079589;28;20040;-77
2022/04/29 01:31:50;;;;;;;6.78;6.18;;;;;;;11.30;100.00;100575.81;5082690;28;20034;-77
2022/04/29 01:34:16;;;;;;;7.22;5.55;;;;;;;11.30;100.00;100578.44;5075714;28;20025;-76
2022/04/29 01:36:42;;;;;;;6.68;5.15;;;;;;;11.30;100.00;100586.38;5080663;28;20028;-77
2022/04/29 01:39:07;;;;;;;6.03;5.43;;;;;;;11.29;100.00;100585.53;5063404;28;20028;-78
2022/04/29 01:41:34;;;;;;;6.57;5.97;;;;;;;11.28;100.00;100577.72;5079158;28;20043;-76
2022/04/29 01:44:00;;;;;;;7.07;6.00;;;;;;;11.26;100.00;100579.63;5078831;28;20035;-77
2022/04/29 01:46:25;;;;;;;6.00;5.50;;;;;;;11.23;100.00;100580.75;5080048;28;20028;-77
2022/04/29 01:49:10;;;;;;;6.10;5.50;;;;;;;11.17;100.00;100575.94;5081650;28;20086;-77
2022/04/29 01:51:43;;;;;;;7.57;5.90;;;;;;;11.04;100.00;100576.06;5077628;28;20032;-77
2022/04/29 01:54:11;;;;;;;6.25;5.68;;;;;;;10.96;100.00;100567.91;5081120;28;20047;-77
2022/04/29 01:56:38;;;;;;;7.30;5.97;;;;;;;10.96;100.00;100567.06;5079065;28;20039;-78
2022/04/29 01:59:06;;;;;;;8.95;6.15;;;;;;;10.93;100.00;100573.44;5080327;28;20024;-77
2022/04/29 02:01:43;;;;;;;6.30;5.80;;;;;;;10.80;100.00;100567.41;5077254;28;20032;-77
2022/04/29 02:04:10;;;;;;;7.22;6.55;;;;;;;10.73;100.00;100570.66;5081225;28;20119;-76
2022/04/29 02:06:38;;;;;;;7.18;6.03;;;;;;;10.65;100.00;100569.47;5076744;28;20123;-77
2022/04/29 02:09:07;;;;;;;6.93;6.30;;;;;;;10.62;100.00;100568.84;5078839;28;20192;-76
2022/04/29 02:11:34;;;;;;;6.40;5.80;;;;;;;10.57;100.00;100571.00;5079019;28;20044;-77
2022/04/29 02:14:21;;;;;;;7.28;6.10;;;;;;;10.45;100.00;100571.94;5070534;28;20033;-77
2022/04/29 02:17:06;;;;;;;7.82;7.07;;;;;;;10.35;100.00;100571.81;5077669;28;20438;-77
2022/04/29 02:19:32;;;;;;;7.20;6.60;;;;;;;10.30;100.00;100570.47;5080204;28;20114;-77
2022/04/29 02:21:58;;;;;;;7.57;6.88;;;;;;;10.24;100.00;100574.44;5077854;28;20032;-77
2022/04/29 02:24:24;;;;;;;7.88;7.18;;;;;;;10.21;100.00;100570.22;5081293;28;20035;-77
2022/04/29 02:26:49;;;;;;;7.75;6.93;;;;;;;10.19;100.00;100564.19;5078015;28;20499;-78
2022/04/29 02:29:14;;;;;;;6.88;6.22;;;;;;;10.22;100.00;100571.91;5081787;28;20141;-76
2022/04/29 02:31:41;;;;;;;7.53;6.75;;;;;;;10.25;100.00;100569.00;5077073;28;20488;-76
2022/04/29 02:34:06;;;;;;;8.18;6.25;;;;;;;10.24;100.00;100570.00;5080232;28;20025;-76
2022/04/29 02:36:32;;;;;;;7.65;6.72;;;;;;;10.24;100.00;100572.63;5078493;28;20035;-76
2022/04/29 02:38:58;;;;;;;9.30;6.93;;;;;;;10.20;100.00;100568.53;5077341;28;20509;-76
2022/04/29 02:41:24;;;;;;;7.63;6.93;;;;;;;10.26;100.00;100561.94;5079603;28;20479;-75
2022/04/29 02:43:50;;;;;;;8.05;7.00;;;;;;;10.29;100.00;100567.00;5076356;28;20109;-76
2022/04/29 02:46:16;;;;;;;6.72;6.13;;;;;;;10.34;100.00;100564.00;5080503;28;20099;-75
2022/04/29 02:48:43;;;;;;;7.32;6.63;;;;;;;10.39;100.00;100570.63;5076937;28;20040;-76
2022/04/29 02:51:09;;;;;;;7.22;6.57;;;;;;;10.39;100.00;100562.69;5079119;28;20495;-75
2022/04/29 02:53:36;;;;;;;8.07;7.15;;;;;;;10.41;100.00;100565.22;5061108;28;20032;-75
2022/04/29 02:56:01;;;;;;;8.90;7.45;;;;;;;10.37;100.00;100566.44;5078038;28;20123;-76
2022/04/29 02:58:39;;;;;;;7.55;6.93;;;;;;;10.32;100.00;100560.63;5078943;28;20056;-75
2022/04/29 03:01:06;;;;;;;7.40;6.80;;;;;;;10.23;100.00;100563.03;5078339;28;20508;-76
2022/04/29 03:03:31;;;;;;;7.63;6.82;;;;;;;10.26;100.00;100567.22;5079559;28;20476;-76
2022/04/29 03:05:57;;;;;;;9.40;7.20;;;;;;;10.25;100.00;100563.72;5063901;28;20021;-76
2022/04/29 03:08:22;;;;;;;8.88;8.07;;;;;;;10.22;100.00;100556.06;5079545;28;20032;-76
2022/04/29 03:10:48;;;;;;;8.75;7.82;;;;;;;10.15;100.00;100554.81;5076322;28;20036;-77
2022/04/29 03:13:15;;;;;;;10.90;7.50;;;;;;;10.11;100.00;100563.91;5079936;28;20474;-76
2022/04/29 03:15:54;;;;;;;8.73;7.82;;;;;;;10.01;100.00;100557.66;5074144;28;20033;-76
2022/04/29 03:18:22;;;;;;;9.73;8.65;;;;;;;10.00;100.00;100555.97;5081573;28;20028;-75
2022/04/29 03:20:53;;;;;;;8.73;7.85;;;;;;;9.95;100.00;100558.13;5073407;28;20078;-76
2022/04/29 03:23:19;;;;;;;9.27;8.00;;;;;;;9.86;100.00;100559.63;5056076;28;20064;-75
2022/04/29 03:25:49;;;;;;;8.90;8.10;;;;;;;9.83;100.00;100559.88;5073626;28;20033;-75
2022/04/29 03:28:15;;;;;;;11.07;8.50;;;;;;;9.85;100.00;100557.09;5085147;28;20040;-75
2022/04/29 03:30:41;;;;;;;9.18;8.38;;;;;;;9.86;100.00;100548.25;5080747;28;20028;-76
2022/04/29 03:33:09;;;;;;;9.90;8.15;;;;;;;9.85;100.00;100546.56;5082731;28;20040;-76
2022/04/29 03:35:47;;;;;;;9.10;8.18;;;;;;;9.91;100.00;100554.00;5080975;28;20028;-76
2022/04/29 03:38:19;;;;;;;9.90;8.10;;;;;;;9.99;100.00;100551.66;5083287;28;20032;-76
2022/04/29 03:40:45;;;;;;;10.73;8.18;;;;;;;10.07;100.00;100545.81;5075645;28;20028;-76
2022/04/29 03:43:12;;;;;;;10.77;8.45;;;;;;;9.92;100.00;100547.78;5084483;28;20351;-76
2022/04/29 03:45:38;;;;;;;9.48;8.57;;;;;;;9.88;100.00;100551.63;5081100;28;20507;-76
2022/04/29 03:48:06;;;;;;;9.43;8.45;;;;;;;9.76;100.00;100547.25;5082096;28;20139;-77
2022/04/29 03:50:40;;;;;;;10.07;9.18;;;;;;;9.71;100.00;100544.13;5081726;28;20048;-76
2022/04/29 03:53:11;;;;;;;10.52;8.57;;;;;;;9.68;100.00;100546.97;5082404;28;20040;-77
2022/04/29 03:55:39;;;;;;;9.85;8.85;;;;;;;9.69;100.00;100556.56;5080428;28;20043;-76
2022/04/29 03:58:05;;;;;;;10.18;9.07;;;;;;;9.73;100.00;100560.63;5081633;28;20040;-75
2022/04/29 04:00:57;;;;;;;10.05;8.98;;;;;;;9.76;100.00;100565.72;5077285;28;20048;-76
2022/04/29 04:03:44;;;;;;;10.50;9.50;;;;;;;9.71;100.00;100570.47;5079878;28;20086;-76
2022/04/29 04:09:01;;;;;;;11.10;9.70;;;;;;;9.74;100.00;100564.97;5078617;28;20021;-76
2022/04/29 04:11:27;;;;;;;11.43;9.93;;;;;;;9.76;100.00;100570.97;5082356;28;20045;-77
2022/04/29 04:13:53;;;;;;;11.45;10.15;;;;;;;9.79;100.00;100568.94;5081843;28;20039;-77
2022/04/29 04:16:45;;;;;;;10.63;9.63;;;;;;;9.82;100.00;100573.16;5083235;28;20060;-77
2022/04/29 04:19:11;;;;;;;11.02;10.02;;;;;;;9.85;100.00;100572.91;5091591;28;20039;-77
2022/04/29 04:21:37;;;;;;;10.32;9.25;;;;;;;9.92;100.00;100573.31;5090234;28;20048;-76
2022/04/29 04:24:05;;;;;;;10.90;9.90;;;;;;;9.98;100.00;100578.97;5087064;28;20035;-76
2022/04/29 04:26:31;;;;;;;11.13;9.98;;;;;;;10.05;100.00;100579.34;5087774;28;20028;-76
2022/04/29 04:29:00;;;;;;;12.05;10.48;;;;;;;10.13;100.00;100584.91;5088333;28;20097;-76
2022/04/29 04:31:35;;;;;;;12.57;10.73;;;;;;;10.22;100.00;100577.16;5079419;28;20044;-75
2022/04/29 04:34:49;;;;;;;11.82;10.75;;;;;;;10.29;100.00;100576.72;5083235;28;20036;-76
2022/04/29 04:36:54;;;;;;;10.57;9.48;;;;;;;10.37;100.00;100579.63;5078581;28;20089;-75
2022/04/29 04:39:21;;;;;;;10.57;9.57;;;;;;;10.42;100.00;100583.59;5071382;28;20047;-75
2022/04/29 04:41:49;;;;;;;10.73;9.82;;;;;;;10.47;100.00;100591.16;5078646;28;20033;-75
2022/04/29 04:44:19;;;;;;;12.82;11.63;;;;;;;10.52;100.00;100589.84;5079264;28;20093;-76
2022/04/29 04:46:46;;;;;;;11.43;10.32;;;;;;;10.60;100.00;100589.25;5074775;28;20033;-76
2022/04/29 04:49:20;;;;;;;12.15;10.95;;;;;;;10.72;100.00;100601.47;5066372;28;20024;-76
2022/04/29 04:52:09;;;;;;;12.18;10.95;;;;;;;10.88;100.00;100596.72;5081419;28;20048;-77
2022/04/29 04:54:35;;;;;;;11.30;10.20;;;;;;;11.03;100.00;100598.16;5063082;28;20086;-76
2022/04/29 04:57:01;;;;;;;12.80;11.13;;;;;;;11.14;100.00;100602.59;5079599;28;20024;-75
2022/04/29 04:59:27;;;;;;;12.00;10.73;;;;;;;11.19;100.00;100599.59;5081461;28;20032;-75
2022/04/29 05:01:53;;;;;;;10.77;9.77;;;;;;;11.28;100.00;100604.16;5078267;28;20085;-78
2022/04/29 05:04:48;;;;;;;11.55;10.35;;;;;;;11.45;100.00;100611.56;5039844;28;20049;-79
2022/04/29 05:07:26;;;;;;;11.93;10.73;;;;;;;11.51;100.00;100611.06;5079276;28;20028;-79
2022/04/29 05:09:52;;;;;;;12.77;10.45;;;;;;;11.59;100.00;100613.97;5081426;28;20384;-80
2022/04/29 05:12:18;;;;;;;12.18;10.98;;;;;;;11.70;100.00;100616.56;5078597;28;20540;-78
2022/04/29 05:15:07;;;;;;;11.32;10.32;;;;;;;11.90;100.00;100614.97;5079287;28;20024;-79
2022/04/29 05:17:33;;;;;;;13.10;11.23;;;;;;;11.98;100.00;100622.28;5080458;28;20551;-77
2022/04/29 05:20:17;;;;;;;11.73;10.57;;;;;;;12.01;100.00;100614.09;5078823;28;20047;-81
2022/04/29 05:22:45;;;;;;;13.45;11.55;;;;;;;12.11;100.00;100622.97;5079201;28;20035;-80
2022/04/29 05:25:12;;;;;;;11.27;10.27;;;;;;;12.25;100.00;100622.66;5079742;28;20051;-81
2022/04/29 05:27:56;;;;;;;12.95;11.50;;;;;;;12.41;100.00;100633.66;5076271;28;20396;-80
2022/04/29 05:30:40;;;;;;;13.38;10.32;;;;;;;12.42;99.86;100634.50;5080870;28;20055;-80
2022/04/29 05:33:38;;;;;;;11.30;9.95;;;;;;;12.37;99.89;100634.84;5079092;28;20044;-84
2022/04/29 05:36:23;;;;;;;12.40;10.88;;;;;;;12.53;99.45;100637.91;5082973;28;20494;-79
2022/04/29 05:42:15;;;;;;;12.55;11.43;;;;;;;12.74;98.34;100645.84;5073253;28;20049;-80
2022/04/29 05:44:41;;;;;;;12.02;10.85;;;;;;;12.79;97.93;100645.44;5082036;28;20480;-79
2022/04/29 05:47:07;;;;;;;13.10;11.27;;;;;;;12.84;97.44;100651.22;5077380;28;20112;-79
2022/04/29 05:49:34;;;;;;;12.65;10.63;;;;;;;12.85;97.37;100643.13;5076923;28;20032;-80
2022/04/29 05:52:03;;;;;;;12.23;11.02;;;;;;;12.91;96.99;100647.03;5075919;28;20059;-77
2022/04/29 05:54:31;;;;;;;13.18;10.30;;;;;;;13.01;96.91;100637.38;5076658;28;20040;-77
2022/04/29 05:57:01;;;;;;;13.60;11.45;;;;;;;13.08;96.50;100647.28;5078856;28;20029;-81
2022/04/29 05:59:28;;;;;;;16.48;10.82;;;;;;;13.20;96.28;100650.72;5088282;28;20055;-80
2022/04/29 06:01:57;;;;;;;16.48;10.20;;;;;;;13.34;95.63;100645.06;5079329;28;20040;-80
2022/04/29 06:04:30;;;;;;;11.02;10.00;;;;;;;13.39;95.64;100637.53;5079830;28;20048;-80
2022/04/29 06:06:57;;;;;;;12.13;10.18;;;;;;;13.46;95.54;100638.69;4768026;28;10001360;-80
2022/04/29 06:09:25;;;;;;;15.60;11.07;;;;;;;13.60;95.12;100644.59;5063417;28;20337;-78
2022/04/29 06:11:51;;;;;;;15.13;10.60;;;;;;;13.73;94.75;100645.16;5077037;28;20025;-78
2022/04/29 06:14:26;;;;;;;12.93;11.55;;;;;;;13.91;94.41;100643.53;5079690;28;20024;-79
2022/04/29 06:16:54;;;;;;;14.30;10.48;;;;;;;14.09;92.97;100652.47;5077739;28;20036;-81
2022/04/29 06:19:39;;;;;;;13.77;11.27;;;;;;;14.22;92.16;100646.91;5079662;28;20082;-80
2022/04/29 06:22:28;;;;;;;13.18;10.32;;;;;;;14.41;90.75;100646.94;5078108;28;20049;-79
2022/04/29 06:24:53;;;;;;;12.73;11.43;;;;;;;14.59;90.13;100647.06;5079193;28;20034;-79
2022/04/29 06:27:19;;;;;;;18.45;11.15;;;;;;;14.88;89.08;100650.50;5076743;28;20036;-80
2022/04/29 06:29:44;;;;;;;14.88;10.63;;;;;;;15.18;87.33;100656.56;5063565;28;20024;-79
2022/04/29 06:32:10;;;;;;;14.00;10.77;;;;;;;15.26;86.16;100648.69;5060977;28;21227;-80
2022/04/29 06:34:54;;;;;;;14.25;10.70;;;;;;;15.42;85.59;100659.53;5078636;28;20109;-79
2022/04/29 06:37:21;;;;;;;14.77;10.43;;;;;;;15.61;85.00;100648.81;5076270;28;20032;-80
2022/04/29 06:39:50;;;;;;;12.25;10.98;;;;;;;15.64;84.28;100653.84;5072944;28;20476;-79
2022/04/29 06:42:46;;;;;;;13.65;10.73;;;;;;;15.64;83.75;100663.66;5077008;28;20104;-79
2022/04/29 06:45:44;;;;;;;15.30;11.82;;;;;;;15.65;83.21;100660.88;5068353;28;20032;-80
2022/04/29 06:48:28;;;;;;;13.73;11.38;;;;;;;15.78;82.48;100661.34;5076374;28;20071;-80
2022/04/29 06:50:59;;;;;;;12.73;11.40;;;;;;;15.90;82.75;100654.81;5080972;28;20040;-78
2022/04/29 06:53:40;;;;;;;18.40;12.07;;;;;;;15.94;82.03;100650.88;5079443;28;20158;-79
2022/04/29 06:56:08;;;;;;;16.40;13.63;;;;;;;16.01;81.47;100660.91;5078112;28;20347;-80
2022/04/29 06:58:34;;;;;;;15.05;12.20;;;;;;;16.19;81.54;100651.13;5078271;28;20036;-79
2022/04/29 07:01:00;;;;;;;16.63;12.38;;;;;;;16.39;80.36;100650.78;5079609;28;20070;-80
2022/04/29 07:03:25;;;;;;;15.40;13.35;;;;;;;16.34;80.05;100647.75;5081052;28;20036;-80
2022/04/29 07:05:52;;;;;;;14.82;12.18;;;;;;;16.27;80.06;100651.19;5084875;28;20047;-79
2022/04/29 07:08:20;;;;;;;14.35;11.52;;;;;;;16.26;79.60;100649.50;5080390;28;20056;-80
2022/04/29 07:11:08;;;;;;;15.07;12.57;;;;;;;16.35;78.55;100654.75;5081997;28;20116;-79
2022/04/29 07:14:00;;;;;;;13.07;11.77;;;;;;;16.39;78.02;100650.78;5078317;28;20411;-77
2022/04/29 07:16:30;;;;;;;13.65;12.23;;;;;;;16.40;77.94;100643.63;5084090;28;20036;-78
2022/04/29 07:18:59;;;;;;;14.32;11.93;;;;;;;16.64;77.68;100654.53;5067914;28;20508;-78
2022/04/29 07:21:24;;;;;;;14.13;12.13;;;;;;;16.81;76.89;100646.66;5075096;28;20043;-79
2022/04/29 07:23:50;;;;;;;16.00;11.77;;;;;;;16.86;76.26;100641.66;5073626;28;20112;-80
2022/04/29 07:26:16;;;;;;;12.70;11.50;;;;;;;16.72;76.06;100651.09;5076331;28;20060;-78
2022/04/29 07:28:41;;;;;;;13.48;12.05;;;;;;;16.84;76.55;100646.34;5074613;28;20741;-82
2022/04/29 07:31:07;;;;;;;13.15;11.82;;;;;;;16.90;76.04;100643.06;5075523;28;20041;-78
2022/04/29 07:33:51;;;;;;;15.82;12.60;;;;;;;16.91;76.17;100637.53;5077365;28;20040;-79
2022/04/29 07:42:03;;;;;;;17.60;11.68;;;;;;;16.90;76.37;100632.38;5076321;28;20047;-78
2022/04/29 07:44:29;;;;;;;13.85;12.43;;;;;;;16.86;76.60;100641.66;5076562;28;20040;-77
2022/04/29 07:46:56;;;;;;;16.00;11.85;;;;;;;16.86;76.22;100637.19;5070153;28;20120;-77
2022/04/29 07:49:38;;;;;;;14.32;11.55;;;;;;;16.81;76.09;100633.31;5083932;28;20039;-76
2022/04/29 07:52:04;;;;;;;13.18;11.77;;;;;;;16.82;76.07;100635.00;5067686;28;20064;-79
2022/04/29 07:54:33;;;;;;;15.18;12.52;;;;;;;16.84;75.73;100638.34;5087657;28;20407;-81
2022/04/29 07:56:59;;;;;;;14.60;11.85;;;;;;;16.77;75.61;100630.13;5090297;28;20028;-75
2022/04/29 07:59:27;;;;;;;14.00;11.55;;;;;;;16.78;76.01;100630.00;5079240;28;20060;-76
2022/04/29 08:02:11;;;;;;;12.85;11.63;;;;;;;16.77;76.55;100627.47;5055307;28;20032;-74
2022/04/29 08:04:36;;;;;;;11.73;10.55;;;;;;;16.78;77.16;100630.00;5055479;28;20067;-75
2022/04/29 08:07:02;;;;;;;12.65;11.48;;;;;;;16.75;77.12;100629.44;5057177;28;20743;-74
2022/04/29 08:09:28;;;;;;;14.20;11.48;;;;;;;16.76;77.89;100626.63;5058083;28;20059;-77
2022/04/29 08:11:55;;;;;;;14.10;12.55;;;;;;;16.81;77.58;100627.97;5053882;28;20098;-77
2022/04/29 08:14:27;;;;;;;15.18;12.50;;;;;;;16.75;77.01;100624.13;5056355;28;20035;-76
2022/04/29 08:17:12;;;;;;;13.38;12.05;;;;;;;16.83;76.40;100626.00;5059081;28;20041;-76
2022/04/29 08:19:43;;;;;;;13.75;12.35;;;;;;;17.02;75.33;100628.47;5057027;28;20040;-76
2022/04/29 08:22:20;;;;;;;14.25;12.18;;;;;;;17.02;75.08;100621.28;5055162;28;21635;-77
2022/04/29 08:24:47;;;;;;;16.25;12.23;;;;;;;17.19;74.07;100617.72;5058176;28;20121;-75
2022/04/29 08:27:13;;;;;;;15.35;11.82;;;;;;;17.41;73.43;100621.66;5041009;28;20036;-74
2022/04/29 08:29:39;;;;;;;18.00;11.77;;;;;;;17.61;71.91;100624.94;5059498;28;20052;-75
2022/04/29 08:32:06;;;;;;;15.45;11.70;;;;;;;17.96;69.89;100619.34;5055540;28;20572;-75
2022/04/29 08:34:34;;;;;;;13.52;12.13;;;;;;;18.24;67.95;100624.38;5057305;28;20044;-73
2022/04/29 08:37:03;;;;;;;12.80;11.57;;;;;;;18.49;66.81;100628.72;5057550;28;20024;-74
2022/04/29 08:39:31;;;;;;;15.57;11.63;;;;;;;18.99;65.10;100615.13;5057477;28;20032;-74
2022/04/29 08:42:01;;;;;;;13.88;12.23;;;;;;;19.13;63.14;100616.25;5054546;28;20097;-75
2022/04/29 08:44:30;;;;;;;28.35;12.52;;;;;;;19.11;62.61;100613.75;5056872;28;20078;-74
2022/04/29 08:47:12;;;;;;;14.65;11.77;;;;;;;18.87;62.77;100608.47;5056886;28;20044;-75
2022/04/29 08:49:54;;;;;;;13.88;11.02;;;;;;;19.06;62.87;100610.75;5054451;28;20151;-73
2022/04/29 08:52:19;;;;;;;14.13;10.88;;;;;;;19.43;61.60;100609.28;5058649;28;20060;-74
2022/04/29 09:00:13;;;;;;;10.98;9.63;;;;;;;19.91;57.69;100606.34;5053955;28;20047;-76
2022/04/29 09:02:40;;;;;;;8.90;7.88;;;;;;;19.78;52.71;100608.81;5052592;28;20109;-75
2022/04/29 09:05:10;;;;;;;8.27;7.15;;;;;;;19.79;53.06;100602.41;5053725;28;20400;-75
2022/04/29 09:08:05;;;;;;;8.25;7.40;;;;;;;19.90;52.36;100593.16;5056760;28;20106;-77
2022/04/29 09:10:35;;;;;;;6.40;5.80;;;;;;;19.79;50.32;100593.56;5041544;28;20052;-76
2022/04/29 09:13:16;;;;;;;8.50;6.32;;;;;;;19.69;49.19;100596.44;5056913;28;20115;-74
2022/04/29 09:15:54;;;;;;;5.88;5.22;;;;;;;19.55;48.81;100595.38;5058473;28;20101;-74
2022/04/29 09:18:34;;;;;;;6.70;5.28;;;;;;;19.55;47.47;100589.19;5056617;28;20125;-74
2022/04/29 09:21:17;;;;;;;6.15;4.75;;;;;;;19.57;47.91;100582.63;5054022;28;20044;-75
2022/04/29 09:23:42;;;;;;;5.47;4.97;;;;;;;19.56;48.64;100585.47;5057033;28;20543;-76
2022/04/29 09:26:28;;;;;;;5.72;5.15;;;;;;;19.54;47.60;100582.16;5058155;28;20028;-73
2022/04/29 09:29:19;;;;;;;7.18;4.95;;;;;;;19.66;47.50;100563.84;5037457;28;20052;-73
2022/04/29 09:32:06;;;;;;;5.32;4.65;;;;;;;19.66;44.96;100574.56;5051851;28;20072;-75
2022/04/29 09:34:58;;;;;;;4.97;3.45;;;;;;;19.56;42.31;100580.97;5053639;28;20399;-77
2022/04/29 09:37:28;;;;;;;4.45;3.28;;;;;;;19.64;43.72;100577.41;5055369;28;20465;-76
2022/04/29 09:39:54;;;;;;;3.83;3.45;;;;;;;19.53;41.38;100573.28;5051834;28;20642;-76
2022/04/29 09:42:20;;;;;;;4.47;4.07;;;;;;;19.68;42.32;100570.69;5055947;28;20412;-76
2022/04/29 09:44:46;;;;;;;5.25;3.38;;;;;;;19.67;40.40;100561.00;5056497;28;20032;-76
2022/04/29 09:47:19;;;;;;;4.50;3.60;;;;;;;19.69;41.15;100564.31;5054039;28;20036;-75
2022/04/29 09:49:57;;;;;;;3.78;3.47;;;;;;;19.78;42.81;100555.22;5055946;28;20155;-75
2022/04/29 09:52:23;;;;;;;5.53;3.47;;;;;;;19.79;41.58;100553.41;5056637;28;20044;-83
2022/04/29 09:54:50;;;;;;;4.05;3.40;;;;;;;19.70;42.16;100549.09;5055244;28;20043;-75
2022/04/29 09:57:23;;;;;;;5.88;4.28;;;;;;;19.68;42.40;100540.38;5055886;28;20135;-74
2022/04/29 09:59:53;;;;;;;5.57;4.43;;;;;;;19.54;43.69;100545.50;5052967;28;20036;-74
2022/04/29 10:02:21;;;;;;;5.88;5.20;;;;;;;19.44;45.55;100544.03;5056807;28;20052;-74
2022/04/29 10:04:51;;;;;;;6.15;4.72;;;;;;;19.37;45.63;100535.88;5054256;28;20049;-73
2022/04/29 10:07:18;;;;;;;5.40;5.00;;;;;;;19.27;45.61;100537.09;5054934;28;20040;-73
2022/04/29 10:09:47;;;;;;;6.93;4.85;;;;;;;19.30;46.70;100526.03;5041280;28;20040;-73
2022/04/29 10:12:18;;;;;;;5.10;4.70;;;;;;;19.40;46.42;100526.66;5054807;28;20075;-72
2022/04/29 10:14:57;;;;;;;4.90;4.07;;;;;;;19.52;46.66;100517.25;5052317;28;20028;-71
2022/04/29 10:23:33;;;;;;;4.90;4.50;;;;;;;19.57;45.47;100512.19;5055508;28;20097;-74
2022/04/29 10:26:01;;;;;;;5.32;4.88;;;;;;;19.60;46.21;100514.53;5054582;28;20043;-76
2022/04/29 10:28:27;;;;;;;5.72;4.53;;;;;;;19.63;45.13;100516.81;5057648;28;20041;-75
2022/04/29 10:31:01;;;;;;;6.15;4.72;;;;;;;19.67;44.29;100512.81;5051975;28;20040;-75
2022/04/29 10:33:26;;;;;;;4.95;4.55;;;;;;;19.70;45.00;100509.75;5055883;28;20028;-76
2022/04/29 10:35:53;;;;;;;4.68;4.28;;;;;;;19.80;44.72;100502.31;5055029;28;20036;-74
2022/04/29 10:38:43;;;;;;;5.85;4.72;;;;;;;19.80;43.91;100496.94;5054322;28;20116;-74
2022/04/29 10:41:25;;;;;;;5.35;4.85;;;;;;;19.76;44.12;100492.97;5053094;28;20468;-75
2022/04/29 10:43:50;;;;;;;5.18;4.78;;;;;;;19.76;44.61;100489.47;5056312;28;20036;-74
2022/04/29 10:46:20;;;;;;;4.72;4.30;;;;;;;19.79;45.29;100489.13;5056559;28;20044;-73
2022/04/29 10:49:19;;;;;;;5.32;4.50;;;;;;;19.90;45.04;100489.53;5056147;28;20044;-75
2022/04/29 10:52:03;;;;;;;5.70;5.20;;;;;;;19.90;45.09;100476.13;5053788;28;20063;-75
2022/04/29 10:54:56;;;;;;;4.95;4.50;;;;;;;19.91;44.33;100472.41;5054781;28;20479;-75
2022/04/29 10:57:44;;;;;;;4.70;4.10;;;;;;;19.76;43.72;100474.22;5061404;28;20036;-75
2022/04/29 11:00:18;;;;;;;4.45;3.85;;;;;;;19.67;43.41;100477.16;5072226;28;20056;-76
2022/04/29 11:02:46;;;;;;;5.95;3.60;;;;;;;19.72;43.20;100464.91;5062625;28;20089;-76
2022/04/29 11:05:37;;;;;;;4.90;3.63;;;;;;;19.87;43.75;100463.09;5077161;28;20044;-77
2022/04/29 11:08:10;;;;;;;3.70;3.35;;;;;;;20.12;44.08;100458.34;5075450;28;20036;-76
2022/04/29 11:11:08;;;;;;;6.45;3.90;;;;;;;20.19;41.75;100453.91;5077579;28;20503;-77
2022/04/29 11:14:01;;;;;;;4.13;3.72;;;;;;;20.25;41.64;100447.00;5064637;28;20436;-77
2022/04/29 11:17:16;;;;;;;6.60;4.40;;;;;;;20.29;41.12;100442.91;5077019;28;20056;-76
2022/04/29 11:19:45;;;;;;;6.55;4.00;;;;;;;20.27;40.78;100428.84;5078752;28;20024;-75
2022/04/29 11:25:02;;;;;;;5.78;3.90;;;;;;;20.41;41.74;100436.13;5073637;28;20032;-75
2022/04/29 11:27:37;;;;;;;6.10;4.63;;;;;;;20.44;41.26;100431.22;5079249;28;20127;-76
2022/04/29 11:30:09;;;;;;;4.32;3.92;;;;;;;20.43;40.78;100428.72;5073878;28;20054;-75
2022/04/29 11:32:43;;;;;;;4.40;4.00;;;;;;;20.54;41.02;100422.91;4723048;28;9999887;-74
2022/04/29 11:35:08;;;;;;;5.78;4.55;;;;;;;20.68;40.52;100422.03;5073128;28;20033;-75
2022/04/29 11:37:35;;;;;;;4.80;4.05;;;;;;;20.75;39.67;100414.91;5075103;28;20044;-77
2022/04/29 11:40:03;;;;;;;4.43;3.90;;;;;;;20.92;40.64;100401.28;5077282;28;20115;-77
2022/04/29 11:42:28;;;;;;;5.72;4.18;;;;;;;21.09;39.66;100413.44;5074424;28;20365;-75
2022/04/29 11:44:55;;;;;;;5.35;4.25;;;;;;;21.26;39.51;100404.19;5070483;28;20082;-79
2022/04/29 11:47:25;;;;;;;4.88;4.43;;;;;;;21.20;37.56;100404.94;5069163;28;20048;-75
2022/04/29 11:49:52;;;;;;;4.60;4.20;;;;;;;21.42;38.38;100398.53;5071375;28;20033;-74
2022/04/29 11:52:30;;;;;;;5.95;4.55;;;;;;;21.60;37.23;100396.22;5074118;28;20043;-73
2022/04/29 11:55:00;;;;;;;4.88;4.47;;;;;;;21.64;37.22;100386.75;5076009;28;20040;-74
2022/04/29 11:57:28;;;;;;;4.20;3.58;;;;;;;21.99;37.37;100392.19;5074433;28;20068;-75
2022/04/29 11:59:54;;;;;;;5.70;3.95;;;;;;;22.17;36.40;100381.78;5072412;28;20043;-76
2022/04/29 12:02:21;;;;;;;3.83;3.42;;;;;;;22.49;36.20;100379.47;5066430;28;20040;-75